sensor_id;sensor_type;location;lat;lon;timestamp;pressure;altitude;pressure_sealevel;temperature;humidity
66196;BME280;53000;45.182;5.736;2023-12-07T00:01:05;99602.38;;;6.72;57.71
66196;BME280;53000;45.182;5.736;2023-12-07T00:03:30;99596.28;;;6.70;57.32
66196;BME280;53000;45.182;5.736;2023-12-07T00:05:56;99596.41;;;6.68;57.77
66196;BME280;53000;45.182;5.736;2023-12-07T00:08:21;99601.09;;;6.66;57.72
66196;BME280;53000;45.182;5.736;2023-12-07T00:10:46;99600.38;;;6.64;58.16
66196;BME280;53000;45.182;5.736;2023-12-07T00:13:12;99605.75;;;6.64;58.07
66196;BME280;53000;45.182;5.736;2023-12-07T00:15:37;99610.97;;;6.66;57.80
66196;BME280;53000;45.182;5.736;2023-12-07T00:18:03;99608.56;;;6.63;58.12
66196;BME280;53000;45.182;5.736;2023-12-07T00:20:29;99605.31;;;6.59;57.89
66196;BME280;53000;45.182;5.736;2023-12-07T00:22:55;99598.22;;;6.58;57.86
66196;BME280;53000;45.182;5.736;2023-12-07T00:25:23;99599.38;;;6.55;57.66
66196;BME280;53000;45.182;5.736;2023-12-07T00:27:48;99607.28;;;6.57;57.33
66196;BME280;53000;45.182;5.736;2023-12-07T00:30:14;99606.56;;;6.55;57.64
66196;BME280;53000;45.182;5.736;2023-12-07T00:32:40;99602.44;;;6.51;57.83
66196;BME280;53000;45.182;5.736;2023-12-07T00:35:09;99612.09;;;6.53;57.32
66196;BME280;53000;45.182;5.736;2023-12-07T00:37:34;99613.91;;;6.53;57.66
66196;BME280;53000;45.182;5.736;2023-12-07T00:40:00;99613.91;;;6.53;58.38
66196;BME280;53000;45.182;5.736;2023-12-07T00:42:27;99612.22;;;6.52;57.57
66196;BME280;53000;45.182;5.736;2023-12-07T00:44:52;99615.88;;;6.51;58.58
66196;BME280;53000;45.182;5.736;2023-12-07T00:47:17;99619.44;;;6.51;57.92
66196;BME280;53000;45.182;5.736;2023-12-07T00:49:43;99602.72;;;6.48;57.80
66196;BME280;53000;45.182;5.736;2023-12-07T00:52:08;99607.06;;;6.39;58.19
66196;BME280;53000;45.182;5.736;2023-12-07T00:54:34;99611.97;;;6.34;57.58
66196;BME280;53000;45.182;5.736;2023-12-07T00:56:59;99623.84;;;6.31;57.94
66196;BME280;53000;45.182;5.736;2023-12-07T00:59:25;99625.25;;;6.26;58.24
66196;BME280;53000;45.182;5.736;2023-12-07T01:01:50;99628.91;;;6.25;57.70
66196;BME280;53000;45.182;5.736;2023-12-07T01:04:16;99636.16;;;6.24;57.86
66196;BME280;53000;45.182;5.736;2023-12-07T01:06:41;99638.94;;;6.23;58.19
66196;BME280;53000;45.182;5.736;2023-12-07T01:09:08;99637.91;;;6.14;58.22
66196;BME280;53000;45.182;5.736;2023-12-07T01:11:38;99636.88;;;6.05;58.30
66196;BME280;53000;45.182;5.736;2023-12-07T01:14:04;99634.97;;;5.96;58.48
66196;BME280;53000;45.182;5.736;2023-12-07T01:16:30;99640.53;;;5.83;58.71
66196;BME280;53000;45.182;5.736;2023-12-07T01:18:55;99648.50;;;5.73;59.08
66196;BME280;53000;45.182;5.736;2023-12-07T01:21:20;99650.13;;;5.65;59.02
66196;BME280;53000;45.182;5.736;2023-12-07T01:23:46;99655.03;;;5.60;58.35
66196;BME280;53000;45.182;5.736;2023-12-07T01:26:11;99652.47;;;5.58;58.93
66196;BME280;53000;45.182;5.736;2023-12-07T01:28:36;99658.69;;;5.59;58.62
66196;BME280;53000;45.182;5.736;2023-12-07T01:31:02;99642.56;;;5.59;58.98
66196;BME280;53000;45.182;5.736;2023-12-07T01:33:27;99644.28;;;5.60;59.46
66196;BME280;53000;45.182;5.736;2023-12-07T01:35:53;99642.19;;;5.63;59.97
66196;BME280;53000;45.182;5.736;2023-12-07T01:38:18;99648.28;;;5.65;59.52
66196;BME280;53000;45.182;5.736;2023-12-07T01:40:44;99651.69;;;5.67;59.54
66196;BME280;53000;45.182;5.736;2023-12-07T01:43:09;99652.41;;;5.69;59.22
66196;BME280;53000;45.182;5.736;2023-12-07T01:45:35;99646.06;;;5.70;58.71
66196;BME280;53000;45.182;5.736;2023-12-07T01:48:00;99647.53;;;5.74;59.50
66196;BME280;53000;45.182;5.736;2023-12-07T01:50:26;99647.00;;;5.81;58.75
66196;BME280;53000;45.182;5.736;2023-12-07T01:52:58;99648.97;;;5.79;58.98
66196;BME280;53000;45.182;5.736;2023-12-07T01:55:25;99647.66;;;5.73;59.19
66196;BME280;53000;45.182;5.736;2023-12-07T01:57:52;99649.34;;;5.74;58.92
66196;BME280;53000;45.182;5.736;2023-12-07T02:00:20;99660.94;;;5.74;58.88
66196;BME280;53000;45.182;5.736;2023-12-07T02:02:46;99653.88;;;5.73;58.53
66196;BME280;53000;45.182;5.736;2023-12-07T02:05:13;99659.50;;;5.70;59.44
66196;BME280;53000;45.182;5.736;2023-12-07T02:07:41;99669.97;;;5.73;58.77
66196;BME280;53000;45.182;5.736;2023-12-07T02:10:07;99673.50;;;5.74;58.82
66196;BME280;53000;45.182;5.736;2023-12-07T02:12:32;99674.06;;;5.68;58.89
66196;BME280;53000;45.182;5.736;2023-12-07T02:15:00;99674.06;;;5.68;59.17
66196;BME280;53000;45.182;5.736;2023-12-07T02:17:49;99670.38;;;5.69;58.94
66196;BME280;53000;45.182;5.736;2023-12-07T02:20:22;99668.91;;;5.65;58.78
66196;BME280;53000;45.182;5.736;2023-12-07T02:22:52;99679.06;;;5.61;58.98
66196;BME280;53000;45.182;5.736;2023-12-07T02:25:24;99667.75;;;5.58;59.25
66196;BME280;53000;45.182;5.736;2023-12-07T02:27:50;99677.38;;;5.60;58.83
66196;BME280;53000;45.182;5.736;2023-12-07T02:30:16;99677.47;;;5.59;59.04
66196;BME280;53000;45.182;5.736;2023-12-07T02:32:43;99673.34;;;5.54;59.33
66196;BME280;53000;45.182;5.736;2023-12-07T02:35:09;99670.94;;;5.51;58.90
66196;BME280;53000;45.182;5.736;2023-12-07T02:37:42;99664.94;;;5.48;58.60
66196;BME280;53000;45.182;5.736;2023-12-07T02:40:08;99665.47;;;5.42;58.79
66196;BME280;53000;45.182;5.736;2023-12-07T02:42:40;99671.09;;;5.39;59.19
66196;BME280;53000;45.182;5.736;2023-12-07T02:45:09;99667.22;;;5.31;59.01
66196;BME280;53000;45.182;5.736;2023-12-07T02:47:35;99673.56;;;5.30;58.76
66196;BME280;53000;45.182;5.736;2023-12-07T02:50:01;99668.84;;;5.23;58.49
66196;BME280;53000;45.182;5.736;2023-12-07T02:52:26;99668.00;;;5.11;59.15
66196;BME280;53000;45.182;5.736;2023-12-07T02:54:51;99661.66;;;5.01;59.46
66196;BME280;53000;45.182;5.736;2023-12-07T02:57:17;99663.75;;;4.97;59.76
66196;BME280;53000;45.182;5.736;2023-12-07T02:59:42;99664.72;;;4.96;59.80
66196;BME280;53000;45.182;5.736;2023-12-07T03:02:07;99659.72;;;4.91;59.43
66196;BME280;53000;45.182;5.736;2023-12-07T03:04:33;99652.06;;;4.87;59.80
66196;BME280;53000;45.182;5.736;2023-12-07T03:06:58;99658.75;;;4.81;59.80
66196;BME280;53000;45.182;5.736;2023-12-07T03:09:24;99651.34;;;4.74;60.00
66196;BME280;53000;45.182;5.736;2023-12-07T03:11:50;99650.00;;;4.68;60.32
66196;BME280;53000;45.182;5.736;2023-12-07T03:14:15;99644.63;;;4.68;60.80
66196;BME280;53000;45.182;5.736;2023-12-07T03:16:41;99646.22;;;4.70;60.58
66196;BME280;53000;45.182;5.736;2023-12-07T03:19:06;99640.75;;;4.72;60.55
66196;BME280;53000;45.182;5.736;2023-12-07T03:21:31;99651.94;;;4.77;60.42
66196;BME280;53000;45.182;5.736;2023-12-07T03:23:57;99650.59;;;4.83;60.59
66196;BME280;53000;45.182;5.736;2023-12-07T03:26:22;99637.81;;;4.86;60.31
66196;BME280;53000;45.182;5.736;2023-12-07T03:28:47;99635.34;;;4.83;60.02
66196;BME280;53000;45.182;5.736;2023-12-07T03:31:12;99639.16;;;4.81;60.56
66196;BME280;53000;45.182;5.736;2023-12-07T03:33:38;99614.88;;;4.71;59.84
66196;BME280;53000;45.182;5.736;2023-12-07T03:36:04;99636.47;;;4.81;60.17
66196;BME280;53000;45.182;5.736;2023-12-07T03:38:30;99642.78;;;4.80;60.40
66196;BME280;53000;45.182;5.736;2023-12-07T03:40:55;99635.00;;;4.77;60.13
66196;BME280;53000;45.182;5.736;2023-12-07T03:43:21;99637.78;;;4.75;60.32
66196;BME280;53000;45.182;5.736;2023-12-07T03:45:46;99635.38;;;4.72;60.30
66196;BME280;53000;45.182;5.736;2023-12-07T03:48:12;99638.16;;;4.70;60.79
66196;BME280;53000;45.182;5.736;2023-12-07T03:50:37;99636.47;;;4.69;60.80
66196;BME280;53000;45.182;5.736;2023-12-07T03:53:03;99635.75;;;4.67;60.67
66196;BME280;53000;45.182;5.736;2023-12-07T03:55:28;99633.91;;;4.68;60.36
66196;BME280;53000;45.182;5.736;2023-12-07T03:57:53;99633.28;;;4.64;60.67
66196;BME280;53000;45.182;5.736;2023-12-07T04:00:19;99633.28;;;4.64;60.67
66196;BME280;53000;45.182;5.736;2023-12-07T04:02:44;99633.28;;;4.64;60.55
66196;BME280;53000;45.182;5.736;2023-12-07T04:05:09;99636.84;;;4.65;60.46
66196;BME280;53000;45.182;5.736;2023-12-07T04:07:35;99640.50;;;4.64;60.55
66196;BME280;53000;45.182;5.736;2023-12-07T04:10:00;99639.28;;;4.68;60.71
66196;BME280;53000;45.182;5.736;2023-12-07T04:12:25;99632.19;;;4.67;60.38
66196;BME280;53000;45.182;5.736;2023-12-07T04:14:51;99628.66;;;4.66;60.13
66196;BME280;53000;45.182;5.736;2023-12-07T04:17:19;99626.13;;;4.65;60.41
66196;BME280;53000;45.182;5.736;2023-12-07T04:19:45;99629.16;;;4.60;60.78
66196;BME280;53000;45.182;5.736;2023-12-07T04:22:10;99624.91;;;4.58;60.64
66196;BME280;53000;45.182;5.736;2023-12-07T04:24:35;99625.00;;;4.56;60.43
66196;BME280;53000;45.182;5.736;2023-12-07T04:27:00;99637.94;;;4.51;60.40
66196;BME280;53000;45.182;5.736;2023-12-07T04:29:26;99635.75;;;4.45;60.61
66196;BME280;53000;45.182;5.736;2023-12-07T04:31:51;99630.63;;;4.42;60.67
66196;BME280;53000;45.182;5.736;2023-12-07T04:34:16;99638.91;;;4.39;60.58
66196;BME280;53000;45.182;5.736;2023-12-07T04:36:42;99637.31;;;4.36;61.16
66196;BME280;53000;45.182;5.736;2023-12-07T04:39:07;99634.66;;;4.36;60.80
66196;BME280;53000;45.182;5.736;2023-12-07T04:41:33;99635.13;;;4.30;60.79
66196;BME280;53000;45.182;5.736;2023-12-07T04:43:58;99644.63;;;4.34;61.08
66196;BME280;53000;45.182;5.736;2023-12-07T04:46:24;99644.41;;;4.37;61.30
66196;BME280;53000;45.182;5.736;2023-12-07T04:48:49;99637.22;;;4.38;60.88
66196;BME280;53000;45.182;5.736;2023-12-07T04:51:14;99626.59;;;4.36;60.21
66196;BME280;53000;45.182;5.736;2023-12-07T04:53:40;99641.00;;;4.35;60.33
66196;BME280;53000;45.182;5.736;2023-12-07T04:56:05;99642.22;;;4.31;60.13
66196;BME280;53000;45.182;5.736;2023-12-07T04:58:31;99636.97;;;4.29;60.38
66196;BME280;53000;45.182;5.736;2023-12-07T05:00:57;99646.00;;;4.28;60.63
66196;BME280;53000;45.182;5.736;2023-12-07T05:03:22;99640.00;;;4.25;60.68
66196;BME280;53000;45.182;5.736;2023-12-07T05:05:47;99635.84;;;4.21;61.10
66196;BME280;53000;45.182;5.736;2023-12-07T05:08:15;99646.31;;;4.24;60.94
66196;BME280;53000;45.182;5.736;2023-12-07T05:10:40;99654.34;;;4.24;60.63
66196;BME280;53000;45.182;5.736;2023-12-07T05:13:05;99663.75;;;4.18;60.51
66196;BME280;53000;45.182;5.736;2023-12-07T05:15:31;99653.97;;;4.06;60.47
66196;BME280;53000;45.182;5.736;2023-12-07T05:17:56;99653.97;;;3.95;61.06
66196;BME280;53000;45.182;5.736;2023-12-07T05:20:21;99656.38;;;3.86;60.63
66196;BME280;53000;45.182;5.736;2023-12-07T05:22:49;99656.19;;;3.77;61.18
66196;BME280;53000;45.182;5.736;2023-12-07T05:25:15;99665.22;;;3.76;60.90
66196;BME280;53000;45.182;5.736;2023-12-07T05:27:40;99667.38;;;3.71;61.78
66196;BME280;53000;45.182;5.736;2023-12-07T05:30:06;99675.41;;;3.71;61.82
66196;BME280;53000;45.182;5.736;2023-12-07T05:32:32;99671.78;;;3.72;61.24
66196;BME280;53000;45.182;5.736;2023-12-07T05:34:58;99673.59;;;3.71;61.53
66196;BME280;53000;45.182;5.736;2023-12-07T05:37:23;99679.91;;;3.70;61.47
66196;BME280;53000;45.182;5.736;2023-12-07T05:39:48;99681.38;;;3.74;61.70
66196;BME280;53000;45.182;5.736;2023-12-07T05:42:14;99673.00;;;3.79;61.56
66196;BME280;53000;45.182;5.736;2023-12-07T05:44:39;99679.00;;;3.82;61.55
66196;BME280;53000;45.182;5.736;2023-12-07T05:47:05;99675.97;;;3.87;61.38
66196;BME280;53000;45.182;5.736;2023-12-07T05:49:30;99675.84;;;3.88;61.26
66196;BME280;53000;45.182;5.736;2023-12-07T05:51:55;99683.78;;;3.90;61.02
66196;BME280;53000;45.182;5.736;2023-12-07T05:54:21;99681.19;;;3.88;61.69
66196;BME280;53000;45.182;5.736;2023-12-07T05:56:47;99687.91;;;3.94;61.62
66196;BME280;53000;45.182;5.736;2023-12-07T05:59:13;99686.84;;;3.97;61.45
66196;BME280;53000;45.182;5.736;2023-12-07T06:01:38;99682.31;;;3.97;61.76
66196;BME280;53000;45.182;5.736;2023-12-07T06:04:03;99684.00;;;3.98;61.51
66196;BME280;53000;45.182;5.736;2023-12-07T06:06:29;99682.94;;;4.01;61.74
66196;BME280;53000;45.182;5.736;2023-12-07T06:08:54;99677.69;;;3.99;61.87
66196;BME280;53000;45.182;5.736;2023-12-07T06:11:19;99683.69;;;4.03;61.24
66196;BME280;53000;45.182;5.736;2023-12-07T06:13:45;99682.94;;;4.01;61.52
66196;BME280;53000;45.182;5.736;2023-12-07T06:16:13;99685.97;;;3.96;61.21
66196;BME280;53000;45.182;5.736;2023-12-07T06:18:39;99677.81;;;3.98;61.31
66196;BME280;53000;45.182;5.736;2023-12-07T06:21:05;99685.34;;;3.93;61.71
66196;BME280;53000;45.182;5.736;2023-12-07T06:23:31;99689.25;;;3.88;61.91
66196;BME280;53000;45.182;5.736;2023-12-07T06:25:56;99693.59;;;3.89;61.90
66196;BME280;53000;45.182;5.736;2023-12-07T06:28:22;99693.50;;;3.91;61.85
66196;BME280;53000;45.182;5.736;2023-12-07T06:30:47;99698.41;;;3.97;61.50
66196;BME280;53000;45.182;5.736;2023-12-07T06:33:12;99685.84;;;3.98;61.88
66196;BME280;53000;45.182;5.736;2023-12-07T06:35:38;99690.09;;;4.00;61.56
66196;BME280;53000;45.182;5.736;2023-12-07T06:38:04;99690.47;;;3.96;61.34
66196;BME280;53000;45.182;5.736;2023-12-07T06:40:29;99694.63;;;4.00;61.03
66196;BME280;53000;45.182;5.736;2023-12-07T06:42:56;99690.34;;;3.97;61.36
66196;BME280;53000;45.182;5.736;2023-12-07T06:45:22;99697.75;;;3.94;61.57
66196;BME280;53000;45.182;5.736;2023-12-07T06:47:47;99701.88;;;3.86;61.64
66196;BME280;53000;45.182;5.736;2023-12-07T06:50:13;99698.38;;;3.86;61.75
66196;BME280;53000;45.182;5.736;2023-12-07T06:52:39;99696.75;;;3.83;61.46
66196;BME280;53000;45.182;5.736;2023-12-07T06:55:05;99693.13;;;3.84;61.71
66196;BME280;53000;45.182;5.736;2023-12-07T06:57:31;99684.97;;;3.86;61.48
66196;BME280;53000;45.182;5.736;2023-12-07T06:59:57;99692.38;;;3.82;61.94
66196;BME280;53000;45.182;5.736;2023-12-07T07:02:22;99684.69;;;3.78;61.58
66196;BME280;53000;45.182;5.736;2023-12-07T07:04:50;99674.22;;;3.75;61.63
66196;BME280;53000;45.182;5.736;2023-12-07T07:07:16;99683.34;;;3.83;61.36
66196;BME280;53000;45.182;5.736;2023-12-07T07:09:42;99689.06;;;3.79;61.70
66196;BME280;53000;45.182;5.736;2023-12-07T07:12:08;99696.75;;;3.83;61.70
66196;BME280;53000;45.182;5.736;2023-12-07T07:14:33;99694.31;;;3.80;61.47
66196;BME280;53000;45.182;5.736;2023-12-07T07:16:59;99693.38;;;3.81;61.48
66196;BME280;53000;45.182;5.736;2023-12-07T07:19:25;99697.00;;;3.80;61.80
66196;BME280;53000;45.182;5.736;2023-12-07T07:21:50;99703.34;;;3.79;61.67
66196;BME280;53000;45.182;5.736;2023-12-07T07:24:15;99713.41;;;3.76;61.62
66196;BME280;53000;45.182;5.736;2023-12-07T07:26:41;99725.94;;;3.75;61.68
66196;BME280;53000;45.182;5.736;2023-12-07T07:29:06;99726.28;;;3.71;62.03
66196;BME280;53000;45.182;5.736;2023-12-07T07:31:32;99718.38;;;3.69;61.43
66196;BME280;53000;45.182;5.736;2023-12-07T07:33:57;99707.03;;;3.65;62.23
66196;BME280;53000;45.182;5.736;2023-12-07T07:36:22;99719.91;;;3.60;62.03
66196;BME280;53000;45.182;5.736;2023-12-07T07:38:48;99713.81;;;3.58;61.89
66196;BME280;53000;45.182;5.736;2023-12-07T07:41:14;99717.97;;;3.62;62.27
66196;BME280;53000;45.182;5.736;2023-12-07T07:43:39;99699.34;;;3.61;61.65
66196;BME280;53000;45.182;5.736;2023-12-07T07:46:04;99706.53;;;3.60;62.35
66196;BME280;53000;45.182;5.736;2023-12-07T07:48:30;99708.91;;;3.76;62.24
66196;BME280;53000;45.182;5.736;2023-12-07T07:50:57;99696.66;;;3.96;61.83
66196;BME280;53000;45.182;5.736;2023-12-07T07:53:23;99686.00;;;4.07;61.65
66196;BME280;53000;45.182;5.736;2023-12-07T07:55:48;99689.19;;;4.24;61.32
66196;BME280;53000;45.182;5.736;2023-12-07T07:58:13;99680.31;;;4.35;60.78
66196;BME280;53000;45.182;5.736;2023-12-07T08:00:39;99678.75;;;4.43;60.96
66196;BME280;53000;45.182;5.736;2023-12-07T08:03:04;99670.72;;;4.55;60.99
66196;BME280;53000;45.182;5.736;2023-12-07T08:05:30;99664.63;;;4.64;60.54
66196;BME280;53000;45.182;5.736;2023-12-07T08:07:55;99652.41;;;4.71;60.35
66196;BME280;53000;45.182;5.736;2023-12-07T08:10:21;99645.72;;;4.77;60.31
66196;BME280;53000;45.182;5.736;2023-12-07T08:12:46;99639.03;;;4.82;60.52
66196;BME280;53000;45.182;5.736;2023-12-07T08:15:12;99638.38;;;4.90;60.11
66196;BME280;53000;45.182;5.736;2023-12-07T08:17:40;99635.69;;;5.01;60.06
66196;BME280;53000;45.182;5.736;2023-12-07T08:20:07;99637.59;;;5.22;59.95
66196;BME280;53000;45.182;5.736;2023-12-07T08:22:34;99633.28;;;5.63;58.67
66196;BME280;53000;45.182;5.736;2023-12-07T08:24:59;99627.59;;;6.40;58.24
66196;BME280;53000;45.182;5.736;2023-12-07T08:27:25;99629.28;;;7.22;57.24
66196;BME280;53000;45.182;5.736;2023-12-07T08:29:50;99629.13;;;8.02;55.42
66196;BME280;53000;45.182;5.736;2023-12-07T08:32:16;99618.31;;;8.68;54.63
66196;BME280;53000;45.182;5.736;2023-12-07T08:34:44;99615.56;;;9.41;53.40
66196;BME280;53000;45.182;5.736;2023-12-07T08:37:09;99607.81;;;10.00;52.02
66196;BME280;53000;45.182;5.736;2023-12-07T08:39:35;99608.72;;;10.61;51.67
66196;BME280;53000;45.182;5.736;2023-12-07T08:42:00;99603.03;;;11.32;50.62
66196;BME280;53000;45.182;5.736;2023-12-07T08:44:29;99600.75;;;12.02;51.66
66196;BME280;53000;45.182;5.736;2023-12-07T08:46:54;99605.19;;;12.59;49.04
66196;BME280;53000;45.182;5.736;2023-12-07T08:49:19;99606.06;;;12.99;49.83
66196;BME280;53000;45.182;5.736;2023-12-07T08:51:45;99597.31;;;13.20;47.77
66196;BME280;53000;45.182;5.736;2023-12-07T08:54:10;99591.66;;;13.30;43.56
66196;BME280;53000;45.182;5.736;2023-12-07T08:56:37;99598.28;;;13.59;46.19
66196;BME280;53000;45.182;5.736;2023-12-07T08:59:02;99596.59;;;13.96;46.67
66196;BME280;53000;45.182;5.736;2023-12-07T09:01:27;99603.06;;;14.32;45.10
66196;BME280;53000;45.182;5.736;2023-12-07T09:03:53;99601.22;;;14.78;45.49
66196;BME280;53000;45.182;5.736;2023-12-07T09:06:18;99599.09;;;15.24;42.67
66196;BME280;53000;45.182;5.736;2023-12-07T09:08:43;99603.41;;;15.55;44.38
66196;BME280;53000;45.182;5.736;2023-12-07T09:11:09;99598.56;;;15.72;42.31
66196;BME280;53000;45.182;5.736;2023-12-07T09:13:35;99599.53;;;15.64;39.21
66196;BME280;53000;45.182;5.736;2023-12-07T09:16:00;99593.44;;;15.62;41.68
66196;BME280;53000;45.182;5.736;2023-12-07T09:18:26;99592.75;;;15.75;38.59
66196;BME280;53000;45.182;5.736;2023-12-07T09:20:51;99598.97;;;15.90;40.18
66196;BME280;53000;45.182;5.736;2023-12-07T09:23:17;99609.06;;;15.90;39.60
66196;BME280;53000;45.182;5.736;2023-12-07T09:25:43;99607.13;;;15.69;39.60
66196;BME280;53000;45.182;5.736;2023-12-07T09:28:08;99616.16;;;15.69;36.61
66196;BME280;53000;45.182;5.736;2023-12-07T09:30:34;99607.13;;;15.69;39.06
66196;BME280;53000;45.182;5.736;2023-12-07T09:33:00;99608.75;;;15.63;39.30
66196;BME280;53000;45.182;5.736;2023-12-07T09:35:27;99610.00;;;15.61;37.35
66196;BME280;53000;45.182;5.736;2023-12-07T09:37:53;99605.25;;;15.69;38.72
66196;BME280;53000;45.182;5.736;2023-12-07T09:40:20;99609.34;;;15.59;35.00
66196;BME280;53000;45.182;5.736;2023-12-07T09:42:46;99603.41;;;15.19;38.31
66196;BME280;53000;45.182;5.736;2023-12-07T09:45:13;99593.72;;;14.80;37.72
66196;BME280;53000;45.182;5.736;2023-12-07T09:47:46;99596.88;;;14.39;38.62
66196;BME280;53000;45.182;5.736;2023-12-07T09:50:15;99599.28;;;14.19;39.14
66196;BME280;53000;45.182;5.736;2023-12-07T09:52:43;99599.09;;;14.20;39.42
66196;BME280;53000;45.182;5.736;2023-12-07T09:55:08;99597.91;;;14.23;38.74
66196;BME280;53000;45.182;5.736;2023-12-07T09:57:35;99593.38;;;14.30;38.45
66196;BME280;53000;45.182;5.736;2023-12-07T10:00:02;99591.31;;;14.32;38.25
66196;BME280;53000;45.182;5.736;2023-12-07T10:02:27;99589.19;;;14.42;36.49
66196;BME280;53000;45.182;5.736;2023-12-07T10:05:06;99594.84;;;14.70;35.91
66196;BME280;53000;45.182;5.736;2023-12-07T10:07:34;99599.06;;;14.88;36.41
66196;BME280;53000;45.182;5.736;2023-12-07T10:10:00;99590.78;;;14.96;35.36
66196;BME280;53000;45.182;5.736;2023-12-07T10:12:26;99586.34;;;15.10;36.16
66196;BME280;53000;45.182;5.736;2023-12-07T10:14:51;99594.69;;;15.23;36.19
66196;BME280;53000;45.182;5.736;2023-12-07T10:17:16;99585.72;;;15.29;37.08
66196;BME280;53000;45.182;5.736;2023-12-07T10:19:42;99587.03;;;15.55;36.22
66196;BME280;53000;45.182;5.736;2023-12-07T10:22:13;99581.44;;;15.78;37.26
66196;BME280;53000;45.182;5.736;2023-12-07T10:24:41;99587.00;;;15.91;35.20
66196;BME280;53000;45.182;5.736;2023-12-07T10:27:06;99588.66;;;15.86;35.47
66196;BME280;53000;45.182;5.736;2023-12-07T10:29:35;99576.03;;;15.85;35.55
66196;BME280;53000;45.182;5.736;2023-12-07T10:32:02;99561.66;;;15.76;31.78
66196;BME280;53000;45.182;5.736;2023-12-07T10:34:30;99561.59;;;15.69;34.82
66196;BME280;53000;45.182;5.736;2023-12-07T10:36:55;99548.47;;;15.58;35.93
66196;BME280;53000;45.182;5.736;2023-12-07T10:39:23;99557.75;;;15.64;34.28
66196;BME280;53000;45.182;5.736;2023-12-07T10:41:52;99539.00;;;15.76;34.96
66196;BME280;53000;45.182;5.736;2023-12-07T10:44:21;99540.59;;;15.70;35.09
66196;BME280;53000;45.182;5.736;2023-12-07T10:46:51;99533.41;;;15.41;34.35
66196;BME280;53000;45.182;5.736;2023-12-07T10:49:19;99535.41;;;15.10;33.25
66196;BME280;53000;45.182;5.736;2023-12-07T10:52:00;99533.75;;;14.80;33.98
66196;BME280;53000;45.182;5.736;2023-12-07T10:54:41;99530.75;;;14.30;35.88
66196;BME280;53000;45.182;5.736;2023-12-07T10:57:11;99525.66;;;13.82;35.89
66196;BME280;53000;45.182;5.736;2023-12-07T10:59:41;99516.25;;;13.47;35.87
66196;BME280;53000;45.182;5.736;2023-12-07T11:02:09;99519.47;;;13.19;36.93
66196;BME280;53000;45.182;5.736;2023-12-07T11:04:36;99519.03;;;12.84;36.54
66196;BME280;53000;45.182;5.736;2023-12-07T11:07:08;99511.53;;;12.55;37.05
66196;BME280;53000;45.182;5.736;2023-12-07T11:09:42;99505.50;;;12.37;37.22
66196;BME280;53000;45.182;5.736;2023-12-07T11:12:18;99497.19;;;12.38;37.36
66196;BME280;53000;45.182;5.736;2023-12-07T11:14:46;99491.78;;;12.38;37.84
66196;BME280;53000;45.182;5.736;2023-12-07T11:17:12;99489.38;;;12.43;38.29
66196;BME280;53000;45.182;5.736;2023-12-07T11:19:43;99491.53;;;12.48;37.06
66196;BME280;53000;45.182;5.736;2023-12-07T11:22:12;99494.75;;;12.52;37.96
66196;BME280;53000;45.182;5.736;2023-12-07T11:24:52;99489.22;;;12.68;37.35
66196;BME280;53000;45.182;5.736;2023-12-07T11:27:17;99479.97;;;12.54;37.78
66196;BME280;53000;45.182;5.736;2023-12-07T11:29:46;99478.09;;;12.55;38.46
66196;BME280;53000;45.182;5.736;2023-12-07T11:32:11;99474.38;;;12.56;37.64
66196;BME280;53000;45.182;5.736;2023-12-07T11:34:39;99460.00;;;12.47;38.38
66196;BME280;53000;45.182;5.736;2023-12-07T11:37:05;99456.16;;;12.33;37.88
66196;BME280;53000;45.182;5.736;2023-12-07T11:39:35;99440.59;;;12.19;38.47
66196;BME280;53000;45.182;5.736;2023-12-07T11:42:12;99436.22;;;12.10;38.61
66196;BME280;53000;45.182;5.736;2023-12-07T11:44:42;99435.41;;;12.01;38.75
66196;BME280;53000;45.182;5.736;2023-12-07T11:47:09;99434.41;;;11.85;38.47
66196;BME280;53000;45.182;5.736;2023-12-07T11:49:35;99427.34;;;11.68;38.87
66196;BME280;53000;45.182;5.736;2023-12-07T11:52:01;99415.34;;;11.54;37.65
66196;BME280;53000;45.182;5.736;2023-12-07T11:54:36;99419.78;;;11.31;38.74
66196;BME280;53000;45.182;5.736;2023-12-07T11:57:02;99410.13;;;11.20;38.26
66196;BME280;53000;45.182;5.736;2023-12-07T11:59:28;99402.16;;;11.26;39.04
66196;BME280;53000;45.182;5.736;2023-12-07T12:01:53;99388.75;;;11.33;39.35
66196;BME280;53000;45.182;5.736;2023-12-07T12:04:21;99385.22;;;11.33;38.92
66196;BME280;53000;45.182;5.736;2023-12-07T12:06:46;99381.50;;;11.34;38.94
66196;BME280;53000;45.182;5.736;2023-12-07T12:09:15;99381.31;;;11.35;38.99
66196;BME280;53000;45.182;5.736;2023-12-07T12:11:49;99383.53;;;11.40;38.99
66196;BME280;53000;45.182;5.736;2023-12-07T12:14:17;99382.34;;;11.42;38.93
66196;BME280;53000;45.182;5.736;2023-12-07T12:16:45;99379.47;;;11.44;39.43
66196;BME280;53000;45.182;5.736;2023-12-07T12:19:11;99377.25;;;11.39;37.98
66196;BME280;53000;45.182;5.736;2023-12-07T12:21:36;99365.09;;;11.27;38.05
66196;BME280;53000;45.182;5.736;2023-12-07T12:24:05;99351.88;;;11.16;38.22
66196;BME280;53000;45.182;5.736;2023-12-07T12:26:32;99341.25;;;11.14;38.27
66196;BME280;53000;45.182;5.736;2023-12-07T12:28:58;99334.09;;;11.13;38.26
66196;BME280;53000;45.182;5.736;2023-12-07T12:31:23;99328.22;;;11.01;38.87
66196;BME280;53000;45.182;5.736;2023-12-07T12:33:48;99317.38;;;10.93;38.52
66196;BME280;53000;45.182;5.736;2023-12-07T12:36:15;99325.50;;;10.85;38.54
66196;BME280;53000;45.182;5.736;2023-12-07T12:38:46;99324.31;;;10.79;39.31
66196;BME280;53000;45.182;5.736;2023-12-07T12:41:12;99316.38;;;10.61;39.20
66196;BME280;53000;45.182;5.736;2023-12-07T12:43:37;99315.53;;;10.53;39.73
66196;BME280;53000;45.182;5.736;2023-12-07T12:46:03;99311.28;;;10.42;39.95
66196;BME280;53000;45.182;5.736;2023-12-07T12:48:29;99317.91;;;10.39;40.26
66196;BME280;53000;45.182;5.736;2023-12-07T12:50:54;99309.41;;;10.34;40.35
66196;BME280;53000;45.182;5.736;2023-12-07T12:53:20;99323.44;;;10.30;40.66
66196;BME280;53000;45.182;5.736;2023-12-07T12:55:45;99299.06;;;10.21;40.39
66196;BME280;53000;45.182;5.736;2023-12-07T12:58:12;99300.59;;;10.16;41.44
66196;BME280;53000;45.182;5.736;2023-12-07T13:00:38;99298.03;;;10.14;41.22
66196;BME280;53000;45.182;5.736;2023-12-07T13:03:05;99291.59;;;10.15;41.26